createdAt,value
2022-12-06T00:01:41.943Z,5.35
2022-12-06T00:04:13.085Z,5.37
2022-12-06T00:06:44.797Z,5.40
2022-12-06T00:09:25.507Z,5.44
2022-12-06T00:11:53.953Z,5.50
2022-12-06T00:14:22.952Z,5.57
2022-12-06T00:16:51.600Z,5.63
2022-12-06T00:19:22.943Z,5.69
2022-12-06T00:21:50.899Z,5.75
2022-12-06T00:24:21.954Z,5.79
2022-12-06T00:26:50.482Z,5.83
2022-12-06T00:29:23.940Z,5.85
2022-12-06T00:31:51.943Z,5.84
2022-12-06T00:34:19.755Z,5.82
2022-12-06T00:36:48.409Z,5.78
2022-12-06T00:39:17.568Z,5.76
2022-12-06T00:41:45.947Z,5.73
2022-12-06T00:44:13.687Z,5.71
2022-12-06T00:46:41.533Z,5.69
2022-12-06T00:49:09.485Z,5.67
2022-12-06T00:51:38.600Z,5.63
2022-12-06T00:54:07.911Z,5.61
2022-12-06T00:56:36.765Z,5.59
2022-12-06T00:59:05.428Z,5.58
2022-12-06T01:01:35.601Z,5.59
2022-12-06T01:04:06.303Z,5.57
2022-12-06T01:06:36.478Z,5.51
2022-12-06T01:09:09.090Z,5.48
2022-12-06T01:11:37.298Z,5.43
2022-12-06T01:14:05.066Z,5.41
2022-12-06T01:16:33.877Z,5.38
2022-12-06T01:19:04.497Z,5.36
2022-12-06T01:21:32.130Z,5.33
2022-12-06T01:23:59.592Z,5.30
2022-12-06T01:26:31.304Z,5.28
2022-12-06T01:29:00.160Z,5.26
2022-12-06T01:31:35.487Z,5.27
2022-12-06T01:33:58.260Z,5.30
2022-12-06T01:36:26.737Z,5.33
2022-12-06T01:38:58.185Z,5.37
2022-12-06T01:41:27.847Z,5.42
2022-12-06T01:43:56.562Z,5.49
2022-12-06T01:46:44.896Z,5.51
2022-12-06T01:49:19.579Z,5.58
2022-12-06T01:51:54.695Z,5.62
2022-12-06T01:54:24.128Z,5.66
2022-12-06T01:56:54.012Z,5.70
2022-12-06T01:59:23.105Z,5.77
2022-12-06T02:01:51.071Z,5.82
2022-12-06T02:04:20.222Z,5.82
2022-12-06T02:06:49.342Z,5.80
2022-12-06T02:09:18.535Z,5.78
2022-12-06T02:11:49.412Z,5.76
2022-12-06T02:14:21.946Z,5.73
2022-12-06T02:17:13.310Z,5.69
2022-12-06T02:20:18.271Z,5.66
2022-12-06T02:23:21.764Z,5.64
2022-12-06T02:26:03.323Z,5.62
2022-12-06T02:29:08.233Z,5.59
2022-12-06T02:31:42.791Z,5.55
2022-12-06T02:34:39.970Z,5.50
2022-12-06T02:37:18.534Z,5.51
2022-12-06T02:40:12.056Z,5.50
2022-12-06T02:42:47.630Z,5.46
2022-12-06T02:45:22.311Z,5.45
2022-12-06T02:47:52.592Z,5.45
2022-12-06T02:50:25.740Z,5.45
2022-12-06T02:52:56.368Z,5.44
2022-12-06T02:55:25.041Z,5.41
2022-12-06T02:57:56.208Z,5.37
2022-12-06T03:00:35.656Z,5.35
2022-12-06T03:03:46.843Z,5.33
2022-12-06T03:06:49.142Z,5.31
2022-12-06T03:09:31.340Z,5.29
2022-12-06T03:12:10.496Z,5.30
2022-12-06T03:14:43.536Z,5.34
2022-12-06T03:17:44.288Z,5.36
2022-12-06T03:20:17.244Z,5.42
2022-12-06T03:22:49.919Z,5.47
2022-12-06T03:25:18.796Z,5.53
2022-12-06T03:27:50.861Z,5.59
2022-12-06T03:30:19.683Z,5.64
2022-12-06T03:32:52.524Z,5.67
2022-12-06T03:35:27.172Z,5.71
2022-12-06T03:38:09.080Z,5.73
2022-12-06T03:40:41.343Z,5.73
2022-12-06T03:43:10.361Z,5.72
2022-12-06T03:45:55.898Z,5.70
2022-12-06T03:48:44.815Z,5.69
2022-12-06T03:51:23.232Z,5.67
2022-12-06T03:53:54.236Z,5.62
2022-12-06T03:56:23.384Z,5.62
2022-12-06T03:58:51.388Z,5.61
2022-12-06T04:01:21.567Z,5.59
2022-12-06T04:03:50.511Z,5.57
2022-12-06T04:06:18.245Z,5.54
2022-12-06T04:08:45.719Z,5.51
2022-12-06T04:11:13.829Z,5.50
2022-12-06T04:13:42.554Z,5.48
2022-12-06T04:16:29.467Z,5.44
2022-12-06T04:18:56.898Z,5.39
2022-12-06T04:21:33.316Z,5.35
2022-12-06T04:24:02.252Z,5.32
2022-12-06T04:26:29.891Z,5.28
2022-12-06T04:29:16.119Z,5.25
2022-12-06T04:32:01.789Z,5.20
2022-12-06T04:34:47.952Z,5.16
2022-12-06T04:37:34.199Z,5.12
2022-12-06T04:40:02.120Z,5.12
2022-12-06T04:42:48.569Z,5.13
2022-12-06T04:45:16.373Z,5.16
2022-12-06T04:47:43.872Z,5.21
2022-12-06T04:50:11.413Z,5.26
2022-12-06T04:52:39.194Z,5.31
2022-12-06T04:55:07.927Z,5.37
2022-12-06T04:57:35.605Z,5.42
2022-12-06T05:00:04.471Z,5.48
2022-12-06T05:02:32.199Z,5.53
2022-12-06T05:05:00.279Z,5.57
2022-12-06T05:07:28.016Z,5.57
2022-12-06T05:09:55.721Z,5.54
2022-12-06T05:12:23.534Z,5.52
2022-12-06T05:14:51.143Z,5.48
2022-12-06T05:17:18.498Z,5.44
2022-12-06T05:19:45.883Z,5.40
2022-12-06T05:22:13.412Z,5.40
2022-12-06T05:24:41.101Z,5.39
2022-12-06T05:27:08.613Z,5.37
2022-12-06T05:29:36.296Z,5.33
2022-12-06T05:32:04.971Z,5.27
2022-12-06T05:34:32.514Z,5.21
2022-12-06T05:36:59.891Z,5.14
2022-12-06T05:39:28.798Z,5.11
2022-12-06T05:41:56.366Z,5.06
2022-12-06T05:44:24.063Z,5.01
2022-12-06T05:46:51.385Z,5.01
2022-12-06T05:49:19.115Z,5.01
2022-12-06T05:51:46.616Z,4.99
2022-12-06T05:54:14.173Z,4.96
2022-12-06T05:56:41.971Z,4.92
2022-12-06T05:59:09.326Z,4.86
2022-12-06T06:01:37.015Z,4.82
2022-12-06T06:04:04.755Z,4.79
2022-12-06T06:06:32.191Z,4.79
2022-12-06T06:09:00.584Z,4.76
2022-12-06T06:11:28.346Z,4.76
2022-12-06T06:13:56.111Z,4.76
2022-12-06T06:16:25.782Z,4.77
2022-12-06T06:18:53.599Z,4.80
2022-12-06T06:21:21.118Z,4.84
2022-12-06T06:23:48.660Z,4.87
2022-12-06T06:26:16.316Z,4.93
2022-12-06T06:28:43.890Z,4.96
2022-12-06T06:31:11.976Z,5.01
2022-12-06T06:33:39.777Z,5.07
2022-12-06T06:36:08.613Z,5.13
2022-12-06T06:38:36.363Z,5.17
2022-12-06T06:41:06.052Z,5.22
2022-12-06T06:43:33.949Z,5.25
2022-12-06T06:46:07.339Z,5.26
2022-12-06T06:48:37.973Z,5.26
2022-12-06T06:51:09.486Z,5.25
2022-12-06T06:53:38.778Z,5.25
2022-12-06T06:56:07.358Z,5.26
2022-12-06T06:58:35.220Z,5.26
2022-12-06T07:01:06.142Z,5.28
2022-12-06T07:03:34.523Z,5.32
2022-12-06T07:06:09.077Z,5.34
2022-12-06T07:08:38.563Z,5.33
2022-12-06T07:11:06.503Z,5.31
2022-12-06T07:13:36.367Z,5.29
2022-12-06T07:16:10.740Z,5.27
2022-12-06T07:18:38.582Z,5.27
2022-12-06T07:21:10.422Z,5.26
2022-12-06T07:23:37.928Z,5.28
2022-12-06T07:26:10.025Z,5.29
2022-12-06T07:28:39.917Z,5.35
2022-12-06T07:31:14.618Z,5.40
2022-12-06T07:33:43.289Z,5.46
2022-12-06T07:36:13.668Z,5.52
2022-12-06T07:38:43.182Z,5.61
2022-12-06T07:41:31.965Z,5.71
2022-12-06T07:44:20.246Z,5.80
2022-12-06T07:46:48.673Z,5.94
2022-12-06T07:49:18.093Z,6.08
2022-12-06T07:51:46.763Z,6.21
2022-12-06T07:54:15.699Z,6.34
2022-12-06T07:56:44.452Z,6.45
2022-12-06T07:59:12.546Z,6.54
2022-12-06T08:01:40.318Z,6.64
2022-12-06T08:04:08.611Z,6.71
2022-12-06T08:06:36.792Z,6.76
2022-12-06T08:09:05.884Z,6.86
2022-12-06T08:11:34.437Z,6.92
2022-12-06T08:14:04.171Z,6.94
2022-12-06T08:16:31.868Z,7.01
2022-12-06T08:18:59.585Z,7.04
2022-12-06T08:21:27.594Z,7.06
2022-12-06T08:23:55.120Z,7.08
2022-12-06T08:26:23.611Z,7.09
2022-12-06T08:28:52.284Z,7.12
2022-12-06T08:31:23.639Z,7.13
2022-12-06T08:33:51.392Z,7.17
2022-12-06T08:36:21.925Z,7.19
2022-12-06T08:38:51.170Z,7.20
2022-12-06T08:41:37.948Z,7.23
2022-12-06T08:44:06.445Z,7.24
2022-12-06T08:46:35.068Z,7.27
2022-12-06T08:49:03.822Z,7.30
2022-12-06T08:51:33.699Z,7.35
2022-12-06T08:54:02.571Z,7.38
2022-12-06T08:56:30.401Z,7.40
2022-12-06T08:58:58.174Z,7.41
2022-12-06T09:01:35.722Z,7.44
2022-12-06T09:04:01.143Z,7.50
2022-12-06T09:06:29.899Z,7.55
2022-12-06T09:08:58.153Z,7.63
2022-12-06T09:11:26.605Z,7.72
2022-12-06T09:13:54.261Z,7.83
2022-12-06T09:16:23.843Z,7.94
2022-12-06T09:18:51.675Z,8.03
2022-12-06T09:21:24.011Z,8.12
2022-12-06T09:23:56.772Z,8.17
2022-12-06T09:26:25.249Z,8.24
2022-12-06T09:28:56.320Z,8.29
2022-12-06T09:31:26.258Z,8.35
2022-12-06T09:33:54.270Z,8.32
2022-12-06T09:36:28.727Z,8.33
2022-12-06T09:39:16.345Z,8.36
2022-12-06T09:42:03.949Z,8.41
2022-12-06T09:44:52.527Z,8.49
2022-12-06T09:47:51.802Z,8.47
2022-12-06T09:50:34.197Z,8.41
2022-12-06T09:53:15.948Z,8.37
2022-12-06T09:55:57.953Z,8.34
2022-12-06T09:58:37.318Z,8.26
2022-12-06T10:01:10.327Z,8.22
2022-12-06T10:04:23.408Z,8.21
2022-12-06T10:07:17.348Z,8.20
2022-12-06T10:10:02.942Z,8.11
2022-12-06T10:12:51.658Z,8.02
2022-12-06T10:15:51.810Z,7.97
2022-12-06T10:18:34.144Z,7.96
2022-12-06T10:21:45.422Z,7.91
2022-12-06T10:24:30.171Z,7.89
2022-12-06T10:27:03.887Z,7.87
2022-12-06T10:29:54.601Z,7.85
2022-12-06T10:32:34.111Z,7.86
2022-12-06T10:35:30.952Z,7.86
2022-12-06T10:38:20.754Z,7.87
2022-12-06T10:41:06.140Z,7.87
2022-12-06T10:44:06.526Z,7.89
2022-12-06T10:47:04.213Z,7.94
2022-12-06T10:50:04.729Z,8.00
2022-12-06T10:52:47.942Z,8.05
2022-12-06T10:55:49.301Z,8.07
2022-12-06T10:58:47.074Z,8.07
2022-12-06T11:01:28.583Z,8.13
2022-12-06T11:04:16.639Z,8.21
2022-12-06T11:06:55.627Z,8.22
2022-12-06T11:09:43.195Z,8.22
2022-12-06T11:12:36.241Z,8.23
2022-12-06T11:15:23.816Z,8.26
2022-12-06T11:18:03.728Z,8.28
2022-12-06T11:20:58.147Z,8.28
2022-12-06T11:23:33.787Z,8.29
2022-12-06T11:26:29.177Z,8.28
2022-12-06T11:29:06.013Z,8.27
2022-12-06T11:31:54.359Z,8.26
2022-12-06T11:34:36.692Z,8.28
2022-12-06T11:37:05.533Z,8.30
2022-12-06T11:39:34.192Z,8.33
2022-12-06T11:42:04.292Z,8.35
2022-12-06T11:44:50.210Z,8.35
2022-12-06T11:47:21.806Z,8.36
2022-12-06T11:49:53.855Z,8.32
2022-12-06T11:52:38.877Z,8.29
2022-12-06T11:55:22.532Z,8.28
2022-12-06T11:58:03.673Z,8.26
2022-12-06T12:00:31.467Z,8.20
2022-12-06T12:02:59.526Z,8.17
2022-12-06T12:05:32.589Z,8.15
2022-12-06T12:08:07.193Z,8.15
2022-12-06T12:10:41.276Z,8.15
2022-12-06T12:13:35.752Z,8.16
2022-12-06T12:16:19.533Z,8.17
2022-12-06T12:19:09.009Z,8.14
2022-12-06T12:21:42.533Z,8.14
2022-12-06T12:27:40.242Z,8.12
2022-12-06T12:30:35.706Z,8.10
2022-12-06T12:33:11.503Z,8.08
2022-12-06T12:35:43.549Z,8.03
2022-12-06T12:38:22.323Z,7.99
2022-12-06T12:41:04.774Z,7.97
2022-12-06T12:43:34.065Z,8.03
2022-12-06T12:46:13.346Z,8.08
2022-12-06T12:48:44.048Z,8.15
2022-12-06T12:51:35.703Z,8.22
2022-12-06T12:54:19.566Z,8.26
2022-12-06T12:56:48.619Z,8.31
2022-12-06T12:59:20.977Z,8.37
2022-12-06T13:01:58.690Z,8.41
2022-12-06T13:05:05.174Z,8.44
2022-12-06T13:07:32.312Z,8.48
2022-12-06T13:10:20.822Z,8.47
2022-12-06T13:12:59.055Z,8.43
2022-12-06T13:15:48.665Z,8.37
2022-12-06T13:18:42.299Z,8.35
2022-12-06T13:21:18.026Z,8.31
2022-12-06T13:23:50.116Z,8.24
2022-12-06T13:26:31.672Z,8.20
2022-12-06T13:29:09.854Z,8.14
2022-12-06T13:31:39.488Z,8.08
2022-12-06T13:34:18.114Z,8.05
2022-12-06T13:36:46.234Z,7.99
2022-12-06T13:39:34.541Z,7.95
2022-12-06T13:42:19.861Z,7.91
2022-12-06T13:44:55.379Z,7.88
2022-12-06T13:47:31.285Z,7.86
2022-12-06T13:50:09.539Z,7.84
2022-12-06T13:52:51.604Z,7.80
2022-12-06T13:55:30.604Z,7.78
2022-12-06T13:58:03.598Z,7.75
2022-12-06T14:00:42.874Z,7.74
2022-12-06T14:03:22.976Z,7.72
2022-12-06T14:06:15.379Z,7.69
2022-12-06T14:08:56.575Z,7.66
2022-12-06T14:11:38.148Z,7.64
2022-12-06T14:14:08.959Z,7.61
2022-12-06T14:16:49.798Z,7.59
2022-12-06T14:19:46.353Z,7.57
2022-12-06T14:22:30.122Z,7.55
2022-12-06T14:25:09.278Z,7.55
2022-12-06T14:27:44.407Z,7.58
2022-12-06T14:30:26.010Z,7.61
2022-12-06T14:32:58.172Z,7.61
2022-12-06T14:35:32.958Z,7.64
2022-12-06T14:38:06.068Z,7.67
2022-12-06T14:40:58.973Z,7.73
2022-12-06T14:43:31.276Z,7.78
2022-12-06T14:46:03.414Z,7.82
2022-12-06T14:48:35.158Z,7.82
2022-12-06T14:51:02.613Z,7.82
2022-12-06T14:53:37.082Z,7.81
2022-12-06T14:56:09.533Z,7.77
2022-12-06T14:58:42.405Z,7.73
2022-12-06T15:01:23.547Z,7.69
2022-12-06T15:04:07.510Z,7.66
2022-12-06T15:06:37.249Z,7.63
2022-12-06T15:09:14.630Z,7.57
2022-12-06T15:12:02.029Z,7.52
2022-12-06T15:14:46.356Z,7.42
2022-12-06T15:17:20.684Z,7.32
2022-12-06T15:19:53.084Z,7.26
2022-12-06T15:22:25.957Z,7.18
2022-12-06T15:24:59.142Z,7.14
2022-12-06T15:27:27.671Z,7.12
2022-12-06T15:29:55.348Z,7.09
2022-12-06T15:32:26.383Z,7.06
2022-12-06T15:34:53.637Z,7.03
2022-12-06T15:37:39.391Z,7.01
2022-12-06T15:39:51.255Z,6.99
2022-12-06T15:42:22.536Z,6.98
2022-12-06T15:44:52.024Z,6.99
2022-12-06T15:47:19.945Z,6.98
2022-12-06T15:49:50.068Z,6.92
2022-12-06T15:52:24.074Z,6.87
2022-12-06T15:54:55.391Z,6.80
2022-12-06T15:57:23.089Z,6.75
2022-12-06T15:59:50.765Z,6.72
2022-12-06T16:02:18.701Z,6.69
2022-12-06T16:04:48.591Z,6.67
2022-12-06T16:07:18.097Z,6.65
2022-12-06T16:09:46.793Z,6.66
2022-12-06T16:12:14.645Z,6.65
2022-12-06T16:14:42.577Z,6.62
2022-12-06T16:17:10.333Z,6.62
2022-12-06T16:19:56.495Z,6.61
2022-12-06T16:22:26.241Z,6.58
2022-12-06T16:24:54.192Z,6.57
2022-12-06T16:27:21.962Z,6.54
2022-12-06T16:29:49.566Z,6.49
2022-12-06T16:32:17.088Z,6.44
2022-12-06T16:34:44.485Z,6.38
2022-12-06T16:37:13.244Z,6.34
2022-12-06T16:39:40.704Z,6.31
2022-12-06T16:42:08.525Z,6.29
2022-12-06T16:44:37.767Z,6.29
2022-12-06T16:47:09.019Z,6.29
2022-12-06T16:49:48.422Z,6.29
2022-12-06T16:52:09.088Z,6.27
2022-12-06T16:54:38.934Z,6.23
2022-12-06T16:57:06.531Z,6.20
2022-12-06T16:59:34.751Z,6.19
2022-12-06T17:02:02.036Z,6.18
2022-12-06T17:04:30.988Z,6.18
2022-12-06T17:06:58.625Z,6.18
2022-12-06T17:09:27.475Z,6.18
2022-12-06T17:12:05.992Z,6.21
2022-12-06T17:14:35.438Z,6.22
2022-12-06T17:17:03.346Z,6.20
2022-12-06T17:19:33.097Z,6.18
2022-12-06T17:22:01.794Z,6.21
2022-12-06T17:24:29.971Z,6.24
2022-12-06T17:27:00.749Z,6.27
2022-12-06T17:29:28.530Z,6.30
2022-12-06T17:31:56.858Z,6.37
2022-12-06T17:34:25.038Z,6.42
2022-12-06T17:36:53.266Z,6.50
2022-12-06T17:39:21.703Z,6.57
2022-12-06T17:42:07.953Z,6.63
2022-12-06T17:44:36.215Z,6.66
2022-12-06T17:47:03.988Z,6.73
2022-12-06T17:49:31.560Z,6.76
2022-12-06T17:51:59.295Z,6.72
2022-12-06T17:54:27.077Z,6.68
2022-12-06T17:56:58.035Z,6.70
2022-12-06T17:59:29.769Z,6.70
2022-12-06T18:02:18.195Z,6.71
2022-12-06T18:04:31.641Z,6.73
2022-12-06T18:06:58.933Z,6.73
2022-12-06T18:09:28.090Z,6.75
2022-12-06T18:11:55.568Z,6.72
2022-12-06T18:14:23.364Z,6.62
2022-12-06T18:16:50.845Z,6.54
2022-12-06T18:19:20.730Z,6.45
2022-12-06T18:21:49.105Z,6.42
2022-12-06T18:24:22.453Z,6.39
2022-12-06T18:26:50.518Z,6.37
2022-12-06T18:29:23.708Z,6.35
2022-12-06T18:31:52.311Z,6.35
2022-12-06T18:34:22.378Z,6.34
2022-12-06T18:36:50.713Z,6.33
2022-12-06T18:39:25.942Z,6.33
2022-12-06T18:41:55.388Z,6.33
2022-12-06T18:44:23.592Z,6.34
2022-12-06T18:46:51.387Z,6.38
2022-12-06T18:49:19.081Z,6.41
2022-12-06T18:51:46.417Z,6.44
2022-12-06T18:54:14.516Z,6.50
2022-12-06T18:56:42.578Z,6.57
2022-12-06T18:59:11.928Z,6.61
2022-12-06T19:01:41.128Z,6.66
2022-12-06T19:04:12.887Z,6.69
2022-12-06T19:06:40.566Z,6.74
2022-12-06T19:09:12.641Z,6.77
2022-12-06T19:11:45.218Z,6.83
2022-12-06T19:14:14.336Z,6.85
2022-12-06T19:16:48.156Z,6.89
2022-12-06T19:19:23.834Z,6.91
2022-12-06T19:21:53.076Z,6.92
2022-12-06T19:24:23.927Z,6.92
2022-12-06T19:26:54.180Z,6.92
2022-12-06T19:29:22.520Z,6.89
2022-12-06T19:31:50.884Z,6.86
2022-12-06T19:34:25.453Z,6.83
2022-12-06T19:36:54.803Z,6.82
2022-12-06T19:39:23.524Z,6.80
2022-12-06T19:42:10.362Z,6.77
2022-12-06T19:44:38.691Z,6.75
2022-12-06T19:47:06.375Z,6.69
2022-12-06T19:49:34.369Z,6.66
2022-12-06T19:52:01.829Z,6.63
2022-12-06T19:54:32.147Z,6.58
2022-12-06T19:57:00.909Z,6.57
2022-12-06T19:59:33.494Z,6.56
2022-12-06T20:02:02.345Z,6.52
2022-12-06T20:04:36.299Z,6.49
2022-12-06T20:07:04.816Z,6.52
2022-12-06T20:09:33.788Z,6.54
2022-12-06T20:12:04.916Z,6.57
2022-12-06T20:14:40.898Z,6.61
2022-12-06T20:17:18.509Z,6.63
2022-12-06T20:19:48.513Z,6.72
2022-12-06T20:22:19.243Z,6.78
2022-12-06T20:24:47.744Z,6.84
2022-12-06T20:27:15.557Z,6.88
2022-12-06T20:29:43.212Z,6.93
2022-12-06T20:32:10.946Z,6.97
2022-12-06T20:34:38.908Z,7.00
2022-12-06T20:37:06.802Z,7.01
2022-12-06T20:39:35.268Z,7.03
2022-12-06T20:42:06.396Z,6.99
2022-12-06T20:44:37.105Z,6.98
2022-12-06T20:47:05.202Z,6.96
2022-12-06T20:49:33.217Z,6.92
2022-12-06T20:52:02.355Z,6.87
2022-12-06T20:54:30.121Z,6.83
2022-12-06T20:56:58.603Z,6.79
2022-12-06T20:59:26.632Z,6.73
2022-12-06T21:01:54.467Z,6.69
2022-12-06T21:04:22.139Z,6.66
2022-12-06T21:06:49.648Z,6.65
2022-12-06T21:09:17.090Z,6.62
2022-12-06T21:11:44.566Z,6.59
2022-12-06T21:14:14.701Z,6.55
2022-12-06T21:16:43.812Z,6.52
2022-12-06T21:19:18.842Z,6.49
2022-12-06T21:21:52.567Z,6.46
2022-12-06T21:24:21.823Z,6.45
2022-12-06T21:26:49.674Z,6.47
2022-12-06T21:29:24.962Z,6.52
2022-12-06T21:31:50.164Z,6.55
2022-12-06T21:34:18.211Z,6.56
2022-12-06T21:36:45.777Z,6.53
2022-12-06T21:39:14.415Z,6.46
2022-12-06T21:41:42.186Z,6.40
2022-12-06T21:44:10.019Z,6.35
2022-12-06T21:46:37.739Z,6.33
2022-12-06T21:49:05.317Z,6.34
2022-12-06T21:51:33.174Z,6.39
2022-12-06T21:54:00.981Z,6.48
2022-12-06T21:56:30.922Z,6.54
2022-12-06T21:59:03.240Z,6.58
2022-12-06T22:01:32.022Z,6.61
2022-12-06T22:04:03.344Z,6.64
2022-12-06T22:06:32.062Z,6.67
2022-12-06T22:09:04.901Z,6.71
2022-12-06T22:11:35.213Z,6.70
2022-12-06T22:14:04.323Z,6.69
2022-12-06T22:16:32.102Z,6.66
2022-12-06T22:18:59.754Z,6.64
2022-12-06T22:21:30.291Z,6.63
2022-12-06T22:23:58.263Z,6.60
2022-12-06T22:26:29.202Z,6.55
2022-12-06T22:28:59.357Z,6.52
2022-12-06T22:31:30.963Z,6.45
2022-12-06T22:34:00.394Z,6.39
2022-12-06T22:36:29.069Z,6.37
2022-12-06T22:38:59.966Z,6.35
2022-12-06T22:41:28.435Z,6.35
2022-12-06T22:44:00.357Z,6.34
2022-12-06T22:46:30.059Z,6.35
2022-12-06T22:48:59.586Z,6.37
2022-12-06T22:51:34.187Z,6.39
2022-12-06T22:54:09.040Z,6.43
2022-12-06T22:56:38.397Z,6.48
2022-12-06T22:59:06.460Z,6.54
2022-12-06T23:01:35.566Z,6.59
2022-12-06T23:04:06.119Z,6.62
2022-12-06T23:06:35.276Z,6.66
2022-12-06T23:09:10.644Z,6.69
2022-12-06T23:11:38.055Z,6.72
2022-12-06T23:14:07.523Z,6.75
2022-12-06T23:16:35.941Z,6.76
2022-12-06T23:19:03.967Z,6.76
2022-12-06T23:21:35.636Z,6.78
2022-12-06T23:24:10.672Z,6.78
2022-12-06T23:26:42.706Z,6.78
2022-12-06T23:29:10.742Z,6.76
2022-12-06T23:31:42.168Z,6.71
2022-12-06T23:34:21.696Z,6.70
2022-12-06T23:36:49.724Z,6.68
2022-12-06T23:39:18.210Z,6.65
2022-12-06T23:41:45.841Z,6.62
2022-12-06T23:44:13.822Z,6.59
2022-12-06T23:46:43.176Z,6.56
2022-12-06T23:49:17.979Z,6.49
2022-12-06T23:51:47.072Z,6.41
2022-12-06T23:54:16.376Z,6.40
2022-12-06T23:56:44.361Z,6.38
2022-12-06T23:59:14.195Z,6.36
